Arlington, Kansas
Current Conditions -  °F | °C
As of 8:37 AM on Friday 31 Oct 2014 (Local Time) from KHUT Reporting Station
Few Clouds Few Clouds  
Wind Chill: 28°   Ceiling: Unl
Heat Index: 37°   Visibility: 10mi
Dew Point: 27°   Wind: 15mph
Humidity: 67%   Direction: 10°N
Pressure: 30.49"   Gusts: 25mph
Location:  37.9°N, 98.18°W
Report Text: KHUT 311337Z 01013G22KT 10SM FEW020 03/M03 A3049 RMK AO2 T00281028
Loading
Personal Weather Stations






























Interactive Weather Map
Tropical Storm Tracking
New forecast layout! Learn more

10-Day Weather Forecast

Advertisements
Track Severe Weather on mobile